createdAt,value
2023-01-21T00:05:09.296Z,8.73
2023-01-21T00:15:12.876Z,12.43
2023-01-21T00:25:14.924Z,9.93
2023-01-21T00:35:18.408Z,10.48
2023-01-21T00:45:20.398Z,8.68
2023-01-21T00:55:23.709Z,8.77
2023-01-21T01:05:25.851Z,12.23
2023-01-21T01:15:29.158Z,14.38
2023-01-21T01:25:31.121Z,12.77
2023-01-21T01:35:34.563Z,17.13
2023-01-21T01:45:36.758Z,8.70
2023-01-21T01:55:40.602Z,7.22
2023-01-21T02:05:43.902Z,13.25
2023-01-21T02:15:57.206Z,15.02
2023-01-21T02:26:43.625Z,11.82
2023-01-21T02:37:00.852Z,13.13
2023-01-21T02:47:10.808Z,10.63
2023-01-21T02:57:18.587Z,12.97
2023-01-21T03:07:27.354Z,12.55
2023-01-21T03:17:37.480Z,8.20
2023-01-21T03:27:43.025Z,17.07
2023-01-21T03:37:52.093Z,11.00
2023-01-21T03:47:59.055Z,7.85
2023-01-21T03:58:02.677Z,8.88
2023-01-21T04:08:04.667Z,9.70
2023-01-21T04:18:08.087Z,12.65
2023-01-21T04:28:10.066Z,12.13
2023-01-21T04:38:13.370Z,8.05
2023-01-21T04:48:15.339Z,8.40
2023-01-21T04:58:18.684Z,10.25
2023-01-21T05:08:20.729Z,10.50
2023-01-21T05:18:24.033Z,7.70
2023-01-21T05:28:25.992Z,15.32
2023-01-21T05:38:29.456Z,13.07
2023-01-21T05:48:31.442Z,8.73
2023-01-21T05:58:34.770Z,12.82
2023-01-21T06:08:36.838Z,15.35
2023-01-21T06:18:40.174Z,11.27
2023-01-21T06:28:42.159Z,9.35
2023-01-21T06:38:45.475Z,11.85
2023-01-21T06:48:47.575Z,12.35
2023-01-21T06:58:50.902Z,14.60
2023-01-21T07:08:53.066Z,16.92
2023-01-21T07:18:56.433Z,16.58
2023-01-21T07:29:00.984Z,20.58
2023-01-21T07:39:05.109Z,18.17
2023-01-21T07:49:07.119Z,11.27
2023-01-21T07:59:11.199Z,14.65
2023-01-21T08:09:13.147Z,17.80
2023-01-21T08:19:16.463Z,16.05
2023-01-21T08:29:18.446Z,17.48
2023-01-21T08:39:21.752Z,15.43
2023-01-21T08:49:23.742Z,13.63
2023-01-21T08:59:27.317Z,23.13
2023-01-21T09:09:30.586Z,21.95
2023-01-21T09:19:33.938Z,13.50
2023-01-21T09:29:36.095Z,20.52
2023-01-21T09:39:39.451Z,18.70
2023-01-21T09:49:44.451Z,19.23
2023-01-21T10:00:00.135Z,18.20
2023-01-21T10:10:13.356Z,17.85
2023-01-21T10:20:22.613Z,19.73
2023-01-21T10:30:28.371Z,21.43
2023-01-21T10:40:40.317Z,20.63
2023-01-21T10:50:50.582Z,22.05
2023-01-21T11:00:57.655Z,20.38
2023-01-21T11:11:00.441Z,22.38
2023-01-21T11:21:14.264Z,22.25
2023-01-21T11:31:22.767Z,22.05
2023-01-21T11:41:26.256Z,17.55
2023-01-21T11:51:28.265Z,25.67
2023-01-21T12:01:31.968Z,21.88
2023-01-21T12:12:28.077Z,26.98
2023-01-21T12:22:47.409Z,24.20
2023-01-21T12:32:53.699Z,22.67
2023-01-21T12:43:00.588Z,27.77
2023-01-21T12:53:10.941Z,21.65
2023-01-21T13:03:21.369Z,18.13
2023-01-21T13:13:30.400Z,24.65
2023-01-21T13:23:39.655Z,22.90
2023-01-21T13:33:52.559Z,21.02
2023-01-21T13:55:19.509Z,25.73
2023-01-21T14:05:26.530Z,22.00
2023-01-21T14:15:48.572Z,18.95
2023-01-21T14:26:08.532Z,15.95
2023-01-21T14:36:17.887Z,18.00
2023-01-21T14:46:28.285Z,19.63
2023-01-21T14:56:33.104Z,17.23
2023-01-21T15:06:39.668Z,19.88
2023-01-21T15:16:44.485Z,17.60
2023-01-21T15:27:17.596Z,12.70
2023-01-21T15:37:24.718Z,12.48
2023-01-21T15:47:49.620Z,23.77
2023-01-21T15:58:02.053Z,14.85
2023-01-21T16:08:17.735Z,16.42
2023-01-21T16:18:28.606Z,17.02
2023-01-21T16:28:41.677Z,14.95
2023-01-21T16:38:46.908Z,18.85
2023-01-21T16:48:51.104Z,18.00
2023-01-21T16:58:54.787Z,15.88
2023-01-21T17:09:10.409Z,16.80
2023-01-21T17:19:22.923Z,28.30
2023-01-21T17:29:28.556Z,35.30
2023-01-21T17:39:59.934Z,31.30
2023-01-21T17:50:06.679Z,29.70
2023-01-21T18:00:29.430Z,26.50
2023-01-21T18:10:31.493Z,26.30
2023-01-21T18:20:53.812Z,23.05
2023-01-21T18:30:57.635Z,25.67
2023-01-21T18:41:07.810Z,22.17
2023-01-21T18:51:10.095Z,19.93
2023-01-21T19:01:55.009Z,23.75
2023-01-21T19:11:58.363Z,27.73
2023-01-21T19:22:01.652Z,26.92
2023-01-21T19:32:05.614Z,25.58
2023-01-21T19:42:10.170Z,25.73
2023-01-21T19:52:14.557Z,31.55
2023-01-21T20:02:16.613Z,28.77
2023-01-21T20:12:19.970Z,29.95
2023-01-21T20:22:21.890Z,24.92
2023-01-21T20:32:25.342Z,27.83
2023-01-21T20:42:28.045Z,37.65
2023-01-21T20:52:31.400Z,26.30
2023-01-21T21:02:33.544Z,27.58
2023-01-21T21:12:36.883Z,21.70
2023-01-21T21:22:47.114Z,29.48
2023-01-21T21:32:50.675Z,22.10
2023-01-21T21:42:52.935Z,24.08
2023-01-21T21:52:56.302Z,23.75
2023-01-21T22:03:01.179Z,21.83
2023-01-21T22:13:04.511Z,23.95
2023-01-21T22:23:06.462Z,19.83
2023-01-21T22:33:09.784Z,23.55
2023-01-21T22:43:11.811Z,26.13
2023-01-21T22:53:15.354Z,14.95
2023-01-21T23:03:18.316Z,25.45
2023-01-21T23:13:21.734Z,21.20
2023-01-21T23:23:24.015Z,19.40
2023-01-21T23:33:27.325Z,23.80
2023-01-21T23:43:29.511Z,30.10
2023-01-21T23:53:33.297Z,23.98
